CheckWX is a tool to help pilots better visualize weather data.  It is not intended as a substitute for an official pre-flight weather briefing.

14:16:54 UTC

KTKV METAR
Tomahawk Regional Airport
Tomahawk, Wisconsin, USA
Current

22 mins ago

KTKV 221355Z AUTO 02005KT 10SM SCT090 SCT110 07/03 A3002 RMK AO2 T00650031
Observed
Apr-22 @ 13:55 UTC
Wind
  • 020° at 5 KTS
Visibility
10 SM
Flight Rules
VFR
Cloud Levels
  • Scattered at 9,000' AGL
  • Scattered at 11,000' AGL
Temperature
C / 45°F
Dewpoint
C / 37°F
Humidity
76%
Altimeter
30.02" Hg
Pressure
1016.62 hPa
Previous

42 mins ago

KTKV 221335Z AUTO 02005KT 10SM RA OVC090 06/02 A3003 RMK AO2 T00590024
Observed
Apr-22 @ 13:35 UTC
Wind
  • 020° at 5 KTS
Visibility
10 SM
Flight Rules
VFR
Conditions
Rain
Cloud Levels
  • Overcast at 9,000' AGL
Temperature
C / 43°F
Dewpoint
C / 36°F
Humidity
76%
Altimeter
30.03" Hg
Pressure
1016.92 hPa
Previous

1 hour ago

KTKV 221315Z AUTO 00000KT 10SM DZ OVC090 06/02 A3003 RMK AO2 T00600021
Observed
Apr-22 @ 13:15 UTC
Visibility
10 SM
Flight Rules
VFR
Conditions
Drizzle
Cloud Levels
  • Overcast at 9,000' AGL
Temperature
C / 43°F
Dewpoint
C / 36°F
Humidity
76%
Altimeter
30.03" Hg
Pressure
1016.92 hPa